Terminal Aerodrome Forecast
Issued by NWS

Home | Current Version | Previous Version | Text Only | Print | Product List | Glossary On
Versions: 1 2 3 4 5 6 7 8 9 10 11 12 13 14 15 16 17 18 19 20 21 22 23 24 25 26 27 28 29 30 31 32 33 34 35 36 37 38
452
FTUS44 KLZK 181124
TAFBPK
TAF
KBPK 181124Z 1812/1912 14006KT P6SM SCT005 OVC015
     FM181500 14012KT P6SM SCT005 BKN015
     FM182100 15012G20KT P6SM OVC010 WS020/17030KT
     FM190300 16010G16KT 5SM BR VCSH BKN005 OVC010 WS020/19040KT
     FM190800 20012G20KT 3SM -RA BR BKN002 OVC005 WS020/23030KT=

USA.gov is the U.S. government's official web portal to all federal, state and local government web resources and services.